logo
Search for airport 
image banner adimage banner adimage banner ad
image banner ad

ED2163 - Berlin Unfallkrhs.

Located in Berlin, Germany

ICAO - , IATA -

Data provided by Airmate  

General information

Coordinates: N52°31'11" E13°34'4"
Elevation is 238 feet MSL.
 
View others Airports in Brandenburg

Operational data

Special qualification required
Current time UTC:
Current local time:
Weather at : EDDB - Berlin Brandenburg ( 18 km )
METAR: EDDB 161920Z AUTO 11005KT 9999 SHRA VCTS FEW///CB 21/16 Q1012 TEMPO 25020G30KT TSRA
TAF: TAF EDDB 161700Z 1618/1718 24007KT CAVOK PROB30 TEMPO 1618/1621 25015G25KT SHRA SCT040CB BECMG 1706/1708 24012KT TEMPO 1710/1715 26015G25KT
View NOTAMs / SUP AIP / TFR affecting this airport [VIEW]
Communications frequencies: [VIEW]

Runways:

Airport contact information

Address: Berlin Germany

Satellite view of ED2163